sensor_id;sensor_type;location;lat;lon;timestamp;pressure;altitude;pressure_sealevel;temperature;humidity
75424;BME280;64005;55.160;36.002;2024-02-16T00:01:57;100643.09;;;-8.89;76.83
75424;BME280;64005;55.160;36.002;2024-02-16T00:04:25;100635.84;;;-8.89;76.86
75424;BME280;64005;55.160;36.002;2024-02-16T00:06:52;100633.16;;;-8.89;76.86
75424;BME280;64005;55.160;36.002;2024-02-16T00:09:20;100638.53;;;-8.89;76.88
75424;BME280;64005;55.160;36.002;2024-02-16T00:11:47;100633.84;;;-8.87;76.86
75424;BME280;64005;55.160;36.002;2024-02-16T00:14:16;100637.69;;;-8.89;77.07
75424;BME280;64005;55.160;36.002;2024-02-16T00:16:43;100637.53;;;-8.88;76.90
75424;BME280;64005;55.160;36.002;2024-02-16T00:19:10;100633.00;;;-8.87;76.78
75424;BME280;64005;55.160;36.002;2024-02-16T00:21:37;100644.63;;;-8.87;76.93
75424;BME280;64005;55.160;36.002;2024-02-16T00:24:07;100628.75;;;-8.90;76.86
75424;BME280;64005;55.160;36.002;2024-02-16T00:26:36;100631.13;;;-8.87;76.96
75424;BME280;64005;55.160;36.002;2024-02-16T00:29:05;100630.28;;;-8.87;77.02
75424;BME280;64005;55.160;36.002;2024-02-16T00:31:32;100634.31;;;-8.83;77.04
75424;BME280;64005;55.160;36.002;2024-02-16T00:33:59;100635.00;;;-8.81;76.93
75424;BME280;64005;55.160;36.002;2024-02-16T00:36:26;100627.91;;;-8.82;77.00
75424;BME280;64005;55.160;36.002;2024-02-16T00:38:56;100626.91;;;-8.81;77.21
75424;BME280;64005;55.160;36.002;2024-02-16T00:41:23;100625.22;;;-8.82;76.97
75424;BME280;64005;55.160;36.002;2024-02-16T00:43:52;100629.59;;;-8.81;77.03
75424;BME280;64005;55.160;36.002;2024-02-16T00:46:19;100616.66;;;-8.86;77.01
75424;BME280;64005;55.160;36.002;2024-02-16T00:48:48;100618.81;;;-8.81;77.07
75424;BME280;64005;55.160;36.002;2024-02-16T00:51:15;100626.75;;;-8.79;76.94
75424;BME280;64005;55.160;36.002;2024-02-16T00:53:42;100619.66;;;-8.80;76.95
75424;BME280;64005;55.160;36.002;2024-02-16T00:56:09;100616.97;;;-8.80;77.05
75424;BME280;64005;55.160;36.002;2024-02-16T00:58:37;100624.22;;;-8.81;77.03
75424;BME280;64005;55.160;36.002;2024-02-16T01:01:08;100614.28;;;-8.80;77.09
75424;BME280;64005;55.160;36.002;2024-02-16T01:03:40;100614.94;;;-8.78;77.07
75424;BME280;64005;55.160;36.002;2024-02-16T01:06:19;100610.41;;;-8.78;77.02
75424;BME280;64005;55.160;36.002;2024-02-16T01:08:46;100612.06;;;-8.77;77.11
75424;BME280;64005;55.160;36.002;2024-02-16T01:11:13;100619.97;;;-8.75;76.97
75424;BME280;64005;55.160;36.002;2024-02-16T01:13:40;100620.66;;;-8.73;77.03
75424;BME280;64005;55.160;36.002;2024-02-16T01:16:10;100624.88;;;-8.71;77.00
75424;BME280;64005;55.160;36.002;2024-02-16T01:18:37;100623.53;;;-8.75;76.94
75424;BME280;64005;55.160;36.002;2024-02-16T01:21:04;100632.47;;;-8.74;76.83
75424;BME280;64005;55.160;36.002;2024-02-16T01:23:31;100632.47;;;-8.74;76.91
75424;BME280;64005;55.160;36.002;2024-02-16T01:25:58;100636.84;;;-8.73;77.02
75424;BME280;64005;55.160;36.002;2024-02-16T01:28:25;100637.53;;;-8.71;76.93
75424;BME280;64005;55.160;36.002;2024-02-16T01:30:52;100633.13;;;-8.72;76.86
75424;BME280;64005;55.160;36.002;2024-02-16T01:33:23;100633.97;;;-8.72;77.18
75424;BME280;64005;55.160;36.002;2024-02-16T01:35:50;100638.16;;;-8.69;76.97
75424;BME280;64005;55.160;36.002;2024-02-16T01:38:17;100629.91;;;-8.68;76.94
75424;BME280;64005;55.160;36.002;2024-02-16T01:40:44;100630.75;;;-8.67;76.75
75424;BME280;64005;55.160;36.002;2024-02-16T01:43:11;100632.44;;;-8.66;76.84
75424;BME280;64005;55.160;36.002;2024-02-16T01:45:38;100633.13;;;-8.64;76.76
75424;BME280;64005;55.160;36.002;2024-02-16T01:48:06;100636.63;;;-8.64;76.83
75424;BME280;64005;55.160;36.002;2024-02-16T01:50:34;100633.13;;;-8.64;76.75
75424;BME280;64005;55.160;36.002;2024-02-16T01:53:01;100631.06;;;-8.62;76.71
75424;BME280;64005;55.160;36.002;2024-02-16T01:55:28;100630.22;;;-8.63;76.95
75424;BME280;64005;55.160;36.002;2024-02-16T01:57:57;100611.41;;;-8.71;76.98
75424;BME280;64005;55.160;36.002;2024-02-16T02:00:25;100631.25;;;-8.64;77.03
75424;BME280;64005;55.160;36.002;2024-02-16T02:02:52;100627.72;;;-8.64;77.15
75424;BME280;64005;55.160;36.002;2024-02-16T02:05:19;100630.06;;;-8.61;77.14
75424;BME280;64005;55.160;36.002;2024-02-16T02:07:47;100627.03;;;-8.58;77.09
75424;BME280;64005;55.160;36.002;2024-02-16T02:10:14;100622.66;;;-8.59;76.92
75424;BME280;64005;55.160;36.002;2024-02-16T02:12:42;100628.03;;;-8.59;77.13
75424;BME280;64005;55.160;36.002;2024-02-16T02:15:10;100624.34;;;-8.58;76.87
75424;BME280;64005;55.160;36.002;2024-02-16T02:17:37;100627.88;;;-8.58;77.04
75424;BME280;64005;55.160;36.002;2024-02-16T02:20:06;100628.03;;;-8.59;76.96
75424;BME280;64005;55.160;36.002;2024-02-16T02:22:37;100624.50;;;-8.60;76.97
75424;BME280;64005;55.160;36.002;2024-02-16T02:25:05;100626.34;;;-8.60;77.06
75424;BME280;64005;55.160;36.002;2024-02-16T02:27:32;100622.81;;;-8.61;77.02
75424;BME280;64005;55.160;36.002;2024-02-16T02:29:59;100626.34;;;-8.60;77.18
75424;BME280;64005;55.160;36.002;2024-02-16T02:32:26;100624.66;;;-8.61;77.32
75424;BME280;64005;55.160;36.002;2024-02-16T02:34:54;100618.59;;;-8.63;77.19
75424;BME280;64005;55.160;36.002;2024-02-16T02:37:21;100622.13;;;-8.63;77.08
75424;BME280;64005;55.160;36.002;2024-02-16T02:39:50;100617.75;;;-8.64;77.27
75424;BME280;64005;55.160;36.002;2024-02-16T02:42:17;100620.97;;;-8.60;77.23
75424;BME280;64005;55.160;36.002;2024-02-16T02:44:44;100624.34;;;-8.58;77.01
75424;BME280;64005;55.160;36.002;2024-02-16T02:47:15;100629.91;;;-8.60;77.16
75424;BME280;64005;55.160;36.002;2024-02-16T02:49:42;100633.28;;;-8.58;77.25
75424;BME280;64005;55.160;36.002;2024-02-16T02:52:10;100628.88;;;-8.59;77.20
75424;BME280;64005;55.160;36.002;2024-02-16T02:54:37;100633.44;;;-8.59;77.26
75424;BME280;64005;55.160;36.002;2024-02-16T02:57:06;100644.06;;;-8.58;77.10
75424;BME280;64005;55.160;36.002;2024-02-16T02:59:33;100651.78;;;-8.55;77.45
75424;BME280;64005;55.160;36.002;2024-02-16T03:02:01;100664.28;;;-8.54;77.37
75424;BME280;64005;55.160;36.002;2024-02-16T03:04:28;100671.19;;;-8.51;77.18
75424;BME280;64005;55.160;36.002;2024-02-16T03:06:55;100676.22;;;-8.48;77.24
75424;BME280;64005;55.160;36.002;2024-02-16T03:09:22;100672.16;;;-8.44;77.23
75424;BME280;64005;55.160;36.002;2024-02-16T03:11:49;100674.34;;;-8.39;77.08
75424;BME280;64005;55.160;36.002;2024-02-16T03:14:18;100677.91;;;-8.39;77.23
75424;BME280;64005;55.160;36.002;2024-02-16T03:16:45;100673.50;;;-8.40;76.96
75424;BME280;64005;55.160;36.002;2024-02-16T03:19:12;100673.50;;;-8.40;77.03
75424;BME280;64005;55.160;36.002;2024-02-16T03:21:39;100671.66;;;-8.39;77.13
75424;BME280;64005;55.160;36.002;2024-02-16T03:24:06;100659.00;;;-8.39;77.04
75424;BME280;64005;55.160;36.002;2024-02-16T03:26:34;100662.88;;;-8.41;77.09
75424;BME280;64005;55.160;36.002;2024-02-16T03:29:01;100676.22;;;-8.40;76.90
75424;BME280;64005;55.160;36.002;2024-02-16T03:31:30;100660.19;;;-8.41;76.90
75424;BME280;64005;55.160;36.002;2024-02-16T03:33:58;100666.59;;;-8.43;76.92
75424;BME280;64005;55.160;36.002;2024-02-16T03:36:26;100658.66;;;-8.44;76.94
75424;BME280;64005;55.160;36.002;2024-02-16T03:38:53;100650.75;;;-8.46;77.00
75424;BME280;64005;55.160;36.002;2024-02-16T03:41:21;100636.63;;;-8.56;77.61
75424;BME280;64005;55.160;36.002;2024-02-16T03:43:48;100642.84;;;-8.47;77.06
75424;BME280;64005;55.160;36.002;2024-02-16T03:46:15;100639.28;;;-8.48;77.41
75424;BME280;64005;55.160;36.002;2024-02-16T03:48:44;100642.16;;;-8.49;77.17
75424;BME280;64005;55.160;36.002;2024-02-16T03:51:11;100630.53;;;-8.50;77.27
75424;BME280;64005;55.160;36.002;2024-02-16T03:53:38;100626.97;;;-8.50;77.37
75424;BME280;64005;55.160;36.002;2024-02-16T03:56:06;100618.41;;;-8.54;77.32
75424;BME280;64005;55.160;36.002;2024-02-16T03:58:33;100622.78;;;-8.53;77.42
75424;BME280;64005;55.160;36.002;2024-02-16T04:01:00;100621.94;;;-8.53;77.42
75424;BME280;64005;55.160;36.002;2024-02-16T04:03:27;100616.56;;;-8.53;77.36
75424;BME280;64005;55.160;36.002;2024-02-16T04:05:56;100613.69;;;-8.52;77.44
75424;BME280;64005;55.160;36.002;2024-02-16T04:08:25;100618.03;;;-8.51;77.38
75424;BME280;64005;55.160;36.002;2024-02-16T04:10:52;100622.09;;;-8.47;77.57
75424;BME280;64005;55.160;36.002;2024-02-16T04:13:19;100611.47;;;-8.48;77.37
75424;BME280;64005;55.160;36.002;2024-02-16T04:15:46;100615.00;;;-8.48;77.33
75424;BME280;64005;55.160;36.002;2024-02-16T04:18:13;100620.56;;;-8.49;77.57
75424;BME280;64005;55.160;36.002;2024-02-16T04:20:40;100622.44;;;-8.50;77.39
75424;BME280;64005;55.160;36.002;2024-02-16T04:23:09;100620.06;;;-8.45;77.39
75424;BME280;64005;55.160;36.002;2024-02-16T04:25:36;100626.13;;;-8.43;77.57
75424;BME280;64005;55.160;36.002;2024-02-16T04:28:04;100627.63;;;-8.40;77.61
75424;BME280;64005;55.160;36.002;2024-02-16T04:30:31;100630.19;;;-8.38;77.25
75424;BME280;64005;55.160;36.002;2024-02-16T04:32:58;100633.03;;;-8.40;77.44
75424;BME280;64005;55.160;36.002;2024-02-16T04:35:25;100635.38;;;-8.37;77.54
75424;BME280;64005;55.160;36.002;2024-02-16T04:37:52;100634.19;;;-8.34;77.56
75424;BME280;64005;55.160;36.002;2024-02-16T04:40:21;100637.38;;;-8.31;77.49
75424;BME280;64005;55.160;36.002;2024-02-16T04:42:48;100634.66;;;-8.31;77.41
75424;BME280;64005;55.160;36.002;2024-02-16T04:45:15;100633.63;;;-8.30;77.54
75424;BME280;64005;55.160;36.002;2024-02-16T04:47:42;100633.84;;;-8.31;77.40
75424;BME280;64005;55.160;36.002;2024-02-16T04:50:09;100640.25;;;-8.32;77.44
75424;BME280;64005;55.160;36.002;2024-02-16T04:52:37;100643.59;;;-8.30;77.69
75424;BME280;64005;55.160;36.002;2024-02-16T04:55:06;100637.00;;;-8.28;77.56
75424;BME280;64005;55.160;36.002;2024-02-16T04:57:35;100641.22;;;-8.25;77.40
75424;BME280;64005;55.160;36.002;2024-02-16T05:00:03;100636.66;;;-8.25;77.34
75424;BME280;64005;55.160;36.002;2024-02-16T05:02:30;100633.75;;;-8.23;77.50
75424;BME280;64005;55.160;36.002;2024-02-16T05:04:57;100643.56;;;-8.22;77.37
75424;BME280;64005;55.160;36.002;2024-02-16T05:07:24;100646.94;;;-8.20;77.57
75424;BME280;64005;55.160;36.002;2024-02-16T05:09:51;100640.53;;;-8.19;77.72
75424;BME280;64005;55.160;36.002;2024-02-16T05:12:23;100638.47;;;-8.17;77.50
75424;BME280;64005;55.160;36.002;2024-02-16T05:14:52;100651.97;;;-8.17;77.64
75424;BME280;64005;55.160;36.002;2024-02-16T05:17:19;100637.66;;;-8.18;77.63
75424;BME280;64005;55.160;36.002;2024-02-16T05:19:48;100641.53;;;-8.20;77.47
75424;BME280;64005;55.160;36.002;2024-02-16T05:22:15;100645.75;;;-8.18;77.75
75424;BME280;64005;55.160;36.002;2024-02-16T05:24:44;100643.84;;;-8.17;77.76
75424;BME280;64005;55.160;36.002;2024-02-16T05:27:11;100643.69;;;-8.16;77.82
75424;BME280;64005;55.160;36.002;2024-02-16T05:29:38;100649.94;;;-8.15;77.79
75424;BME280;64005;55.160;36.002;2024-02-16T05:32:07;100663.09;;;-8.12;77.80
75424;BME280;64005;55.160;36.002;2024-02-16T05:34:36;100650.63;;;-8.13;77.40
75424;BME280;64005;55.160;36.002;2024-02-16T05:37:04;100659.19;;;-8.10;77.65
75424;BME280;64005;55.160;36.002;2024-02-16T05:39:33;100658.00;;;-8.07;77.69
75424;BME280;64005;55.160;36.002;2024-02-16T05:42:02;100663.41;;;-8.07;77.59
75424;BME280;64005;55.160;36.002;2024-02-16T05:44:29;100661.56;;;-8.07;77.84
75424;BME280;64005;55.160;36.002;2024-02-16T05:46:58;100665.75;;;-8.04;77.78
75424;BME280;64005;55.160;36.002;2024-02-16T05:49:26;100659.16;;;-8.02;77.89
75424;BME280;64005;55.160;36.002;2024-02-16T05:51:54;100660.00;;;-8.01;77.89
75424;BME280;64005;55.160;36.002;2024-02-16T05:54:40;100652.75;;;-8.00;77.56
75424;BME280;64005;55.160;36.002;2024-02-16T05:57:08;100655.28;;;-7.99;77.82
75424;BME280;64005;55.160;36.002;2024-02-16T05:59:35;100650.72;;;-7.98;77.79
75424;BME280;64005;55.160;36.002;2024-02-16T06:02:04;100656.75;;;-7.96;77.74
75424;BME280;64005;55.160;36.002;2024-02-16T06:04:33;100665.53;;;-7.94;78.00
75424;BME280;64005;55.160;36.002;2024-02-16T06:07:00;100661.44;;;-7.90;77.80
75424;BME280;64005;55.160;36.002;2024-02-16T06:09:27;100667.00;;;-7.84;78.27
75424;BME280;64005;55.160;36.002;2024-02-16T06:12:00;100660.91;;;-7.78;78.31
75424;BME280;64005;55.160;36.002;2024-02-16T06:14:29;100671.34;;;-7.75;77.89
75424;BME280;64005;55.160;36.002;2024-02-16T06:16:56;100674.56;;;-7.71;78.26
75424;BME280;64005;55.160;36.002;2024-02-16T06:19:23;100669.44;;;-7.66;77.92
75424;BME280;64005;55.160;36.002;2024-02-16T06:21:52;100672.16;;;-7.66;78.10
75424;BME280;64005;55.160;36.002;2024-02-16T06:24:20;100674.31;;;-7.62;77.88
75424;BME280;64005;55.160;36.002;2024-02-16T06:26:48;100669.75;;;-7.61;78.21
75424;BME280;64005;55.160;36.002;2024-02-16T06:29:15;100669.56;;;-7.59;78.14
75424;BME280;64005;55.160;36.002;2024-02-16T06:31:42;100664.16;;;-7.59;77.97
75424;BME280;64005;55.160;36.002;2024-02-16T06:34:09;100663.81;;;-7.56;78.11
75424;BME280;64005;55.160;36.002;2024-02-16T06:36:36;100662.06;;;-7.49;78.18
75424;BME280;64005;55.160;36.002;2024-02-16T06:39:05;100659.66;;;-7.44;78.29
75424;BME280;64005;55.160;36.002;2024-02-16T06:41:32;100656.78;;;-7.43;78.49
75424;BME280;64005;55.160;36.002;2024-02-16T06:43:59;100674.34;;;-7.39;78.35
75424;BME280;64005;55.160;36.002;2024-02-16T06:46:26;100680.22;;;-7.35;78.30
75424;BME280;64005;55.160;36.002;2024-02-16T06:48:54;100676.13;;;-7.31;78.22
75424;BME280;64005;55.160;36.002;2024-02-16T06:51:23;100668.34;;;-7.26;78.53
75424;BME280;64005;55.160;36.002;2024-02-16T06:53:52;100671.16;;;-7.19;78.59
75424;BME280;64005;55.160;36.002;2024-02-16T06:56:20;100670.78;;;-7.16;78.25
75424;BME280;64005;55.160;36.002;2024-02-16T06:58:48;100684.63;;;-7.11;78.36
75424;BME280;64005;55.160;36.002;2024-02-16T07:01:15;100676.97;;;-7.08;78.42
75424;BME280;64005;55.160;36.002;2024-02-16T07:03:44;100675.13;;;-7.07;78.49
75424;BME280;64005;55.160;36.002;2024-02-16T07:06:11;100675.28;;;-7.09;78.19
75424;BME280;64005;55.160;36.002;2024-02-16T07:08:39;100676.13;;;-7.08;78.22
75424;BME280;64005;55.160;36.002;2024-02-16T07:11:06;100676.31;;;-7.10;78.63
75424;BME280;64005;55.160;36.002;2024-02-16T07:13:37;100669.22;;;-7.11;78.47
75424;BME280;64005;55.160;36.002;2024-02-16T07:16:05;100682.22;;;-7.06;78.56
75424;BME280;64005;55.160;36.002;2024-02-16T07:18:33;100674.94;;;-7.06;78.12
75424;BME280;64005;55.160;36.002;2024-02-16T07:21:01;100677.44;;;-7.04;77.94
75424;BME280;64005;55.160;36.002;2024-02-16T07:23:28;100674.09;;;-7.06;78.08
75424;BME280;64005;55.160;36.002;2024-02-16T07:25:55;100678.66;;;-7.07;78.37
75424;BME280;64005;55.160;36.002;2024-02-16T07:28:23;100686.72;;;-6.99;78.21
75424;BME280;64005;55.160;36.002;2024-02-16T07:30:53;100695.69;;;-6.98;78.06
75424;BME280;64005;55.160;36.002;2024-02-16T07:33:20;100698.00;;;-6.95;78.35
75424;BME280;64005;55.160;36.002;2024-02-16T07:35:50;100692.41;;;-6.94;78.43
75424;BME280;64005;55.160;36.002;2024-02-16T07:38:17;100699.13;;;-6.90;78.50
75424;BME280;64005;55.160;36.002;2024-02-16T07:40:44;100716.19;;;-6.89;78.35
75424;BME280;64005;55.160;36.002;2024-02-16T07:43:12;100715.00;;;-6.87;78.09
75424;BME280;64005;55.160;36.002;2024-02-16T07:45:39;100713.78;;;-6.84;78.38
75424;BME280;64005;55.160;36.002;2024-02-16T07:48:08;100710.91;;;-6.83;78.47
75424;BME280;64005;55.160;36.002;2024-02-16T07:50:35;100701.09;;;-6.84;78.43
75424;BME280;64005;55.160;36.002;2024-02-16T07:53:02;100704.13;;;-6.78;78.46
75424;BME280;64005;55.160;36.002;2024-02-16T07:55:29;100700.59;;;-6.79;78.48
75424;BME280;64005;55.160;36.002;2024-02-16T07:57:56;100701.41;;;-6.78;77.93
75424;BME280;64005;55.160;36.002;2024-02-16T08:00:23;100697.66;;;-6.77;78.20
75424;BME280;64005;55.160;36.002;2024-02-16T08:02:50;100698.16;;;-6.74;78.57
75424;BME280;64005;55.160;36.002;2024-02-16T08:05:19;100700.13;;;-6.68;78.27
75424;BME280;64005;55.160;36.002;2024-02-16T08:07:47;100700.06;;;-6.60;78.74
75424;BME280;64005;55.160;36.002;2024-02-16T08:10:15;100695.03;;;-6.48;79.06
75424;BME280;64005;55.160;36.002;2024-02-16T08:12:42;100697.75;;;-6.33;79.09
75424;BME280;64005;55.160;36.002;2024-02-16T08:15:09;100709.63;;;-6.20;78.85
75424;BME280;64005;55.160;36.002;2024-02-16T08:17:37;100703.28;;;-6.12;78.88
75424;BME280;64005;55.160;36.002;2024-02-16T08:20:05;100702.06;;;-6.10;78.53
75424;BME280;64005;55.160;36.002;2024-02-16T08:22:34;100704.50;;;-6.15;78.25
75424;BME280;64005;55.160;36.002;2024-02-16T08:25:01;100708.97;;;-6.22;78.65
75424;BME280;64005;55.160;36.002;2024-02-16T08:27:29;100698.22;;;-6.30;78.12
75424;BME280;64005;55.160;36.002;2024-02-16T08:29:56;100701.09;;;-6.31;78.21
75424;BME280;64005;55.160;36.002;2024-02-16T08:32:23;100700.81;;;-6.36;78.14
75424;BME280;64005;55.160;36.002;2024-02-16T08:34:50;100699.97;;;-6.37;78.37
75424;BME280;64005;55.160;36.002;2024-02-16T08:37:17;100698.28;;;-6.38;78.67
75424;BME280;64005;55.160;36.002;2024-02-16T08:39:45;100699.34;;;-6.39;78.60
75424;BME280;64005;55.160;36.002;2024-02-16T08:42:12;100694.56;;;-6.37;78.64
75424;BME280;64005;55.160;36.002;2024-02-16T08:44:40;100691.31;;;-6.32;78.78
75424;BME280;64005;55.160;36.002;2024-02-16T08:47:08;100691.22;;;-6.24;78.79
75424;BME280;64005;55.160;36.002;2024-02-16T08:49:35;100687.56;;;-6.17;78.74
75424;BME280;64005;55.160;36.002;2024-02-16T08:52:05;100682.75;;;-6.07;78.78
75424;BME280;64005;55.160;36.002;2024-02-16T08:54:33;100684.13;;;-5.96;79.30
75424;BME280;64005;55.160;36.002;2024-02-16T08:57:01;100684.03;;;-5.88;78.88
75424;BME280;64005;55.160;36.002;2024-02-16T08:59:29;100691.81;;;-5.78;78.83
75424;BME280;64005;55.160;36.002;2024-02-16T09:01:56;100688.56;;;-5.74;79.10
75424;BME280;64005;55.160;36.002;2024-02-16T09:04:24;100684.81;;;-5.73;79.16
75424;BME280;64005;55.160;36.002;2024-02-16T09:06:51;100686.94;;;-5.68;78.92
75424;BME280;64005;55.160;36.002;2024-02-16T09:09:19;100688.91;;;-5.62;79.07
75424;BME280;64005;55.160;36.002;2024-02-16T09:11:46;100680.84;;;-5.55;78.77
75424;BME280;64005;55.160;36.002;2024-02-16T09:14:14;100685.50;;;-5.49;78.88
75424;BME280;64005;55.160;36.002;2024-02-16T09:16:41;100683.69;;;-5.42;79.27
75424;BME280;64005;55.160;36.002;2024-02-16T09:19:08;100688.19;;;-5.35;79.16
75424;BME280;64005;55.160;36.002;2024-02-16T09:21:35;100692.81;;;-5.29;79.31
75424;BME280;64005;55.160;36.002;2024-02-16T09:24:25;100696.75;;;-5.31;78.58
75424;BME280;64005;55.160;36.002;2024-02-16T09:26:55;100680.69;;;-5.33;79.05
75424;BME280;64005;55.160;36.002;2024-02-16T09:29:23;100679.84;;;-5.33;78.56
75424;BME280;64005;55.160;36.002;2024-02-16T09:31:50;100682.75;;;-5.35;78.69
75424;BME280;64005;55.160;36.002;2024-02-16T09:34:18;100679.56;;;-5.38;78.57
75424;BME280;64005;55.160;36.002;2024-02-16T09:36:47;100677.63;;;-5.44;78.65
75424;BME280;64005;55.160;36.002;2024-02-16T09:39:14;100684.09;;;-5.45;78.58
75424;BME280;64005;55.160;36.002;2024-02-16T09:41:42;100676.78;;;-5.45;78.95
75424;BME280;64005;55.160;36.002;2024-02-16T09:44:09;100671.84;;;-5.41;78.94
75424;BME280;64005;55.160;36.002;2024-02-16T09:46:38;100664.34;;;-5.39;79.10
75424;BME280;64005;55.160;36.002;2024-02-16T09:49:05;100666.06;;;-5.32;79.13
75424;BME280;64005;55.160;36.002;2024-02-16T09:51:35;100669.22;;;-5.13;79.63
75424;BME280;64005;55.160;36.002;2024-02-16T09:54:03;100674.41;;;-4.91;79.66
75424;BME280;64005;55.160;36.002;2024-02-16T09:56:32;100674.81;;;-4.72;79.74
75424;BME280;64005;55.160;36.002;2024-02-16T09:58:59;100665.50;;;-4.57;79.69
75424;BME280;64005;55.160;36.002;2024-02-16T10:01:27;100659.75;;;-4.47;79.74
75424;BME280;64005;55.160;36.002;2024-02-16T10:04:00;100662.94;;;-4.37;79.72
75424;BME280;64005;55.160;36.002;2024-02-16T10:06:32;100662.00;;;-4.23;79.67
75424;BME280;64005;55.160;36.002;2024-02-16T10:12:08;100650.41;;;-3.97;79.39
75424;BME280;64005;55.160;36.002;2024-02-16T10:14:36;100648.38;;;-3.88;79.52
75424;BME280;64005;55.160;36.002;2024-02-16T10:17:06;100653.66;;;-3.80;79.39
75424;BME280;64005;55.160;36.002;2024-02-16T10:20:08;100658.69;;;-3.71;79.31
75424;BME280;64005;55.160;36.002;2024-02-16T10:22:36;100657.25;;;-3.67;79.39
75424;BME280;64005;55.160;36.002;2024-02-16T10:25:11;100648.47;;;-3.69;79.38
75424;BME280;64005;55.160;36.002;2024-02-16T10:27:49;100644.88;;;-3.76;78.60
75424;BME280;64005;55.160;36.002;2024-02-16T10:30:21;100640.44;;;-3.83;79.06
75424;BME280;64005;55.160;36.002;2024-02-16T10:32:49;100638.34;;;-3.88;79.06
75424;BME280;64005;55.160;36.002;2024-02-16T10:35:35;100636.28;;;-3.86;79.06
75424;BME280;64005;55.160;36.002;2024-02-16T10:38:03;100624.75;;;-3.88;78.88
75424;BME280;64005;55.160;36.002;2024-02-16T10:40:39;100630.38;;;-3.89;78.58
75424;BME280;64005;55.160;36.002;2024-02-16T10:43:08;100635.41;;;-3.93;78.60
75424;BME280;64005;55.160;36.002;2024-02-16T10:45:37;100635.16;;;-3.98;78.96
75424;BME280;64005;55.160;36.002;2024-02-16T10:48:06;100636.00;;;-3.97;78.70
75424;BME280;64005;55.160;36.002;2024-02-16T10:50:35;100633.50;;;-3.99;78.93
75424;BME280;64005;55.160;36.002;2024-02-16T10:53:08;100644.41;;;-3.92;79.09
75424;BME280;64005;55.160;36.002;2024-02-16T10:55:36;100641.47;;;-3.91;79.00
75424;BME280;64005;55.160;36.002;2024-02-16T10:58:06;100637.88;;;-3.98;79.07
75424;BME280;64005;55.160;36.002;2024-02-16T11:00:35;100655.03;;;-3.91;79.12
75424;BME280;64005;55.160;36.002;2024-02-16T11:03:03;100648.38;;;-3.88;79.02
75424;BME280;64005;55.160;36.002;2024-02-16T11:05:39;100653.00;;;-3.82;79.17
75424;BME280;64005;55.160;36.002;2024-02-16T11:08:12;100653.22;;;-3.77;79.07
75424;BME280;64005;55.160;36.002;2024-02-16T11:10:40;100665.16;;;-3.72;78.94
75424;BME280;64005;55.160;36.002;2024-02-16T11:13:07;100663.75;;;-3.68;78.55
75424;BME280;64005;55.160;36.002;2024-02-16T11:15:35;100661.63;;;-3.66;78.34
75424;BME280;64005;55.160;36.002;2024-02-16T11:18:04;100662.28;;;-3.64;78.51
75424;BME280;64005;55.160;36.002;2024-02-16T11:20:38;100662.28;;;-3.64;78.62
75424;BME280;64005;55.160;36.002;2024-02-16T11:23:17;100667.31;;;-3.67;78.57
75424;BME280;64005;55.160;36.002;2024-02-16T11:25:50;100659.72;;;-3.72;78.65
75424;BME280;64005;55.160;36.002;2024-02-16T11:28:18;100661.00;;;-3.74;78.86
75424;BME280;64005;55.160;36.002;2024-02-16T11:30:45;100664.78;;;-3.69;79.06
75424;BME280;64005;55.160;36.002;2024-02-16T11:33:13;100670.66;;;-3.58;79.09
75424;BME280;64005;55.160;36.002;2024-02-16T11:36:02;100667.38;;;-3.47;78.96
75424;BME280;64005;55.160;36.002;2024-02-16T11:38:31;100658.59;;;-3.43;79.04
75424;BME280;64005;55.160;36.002;2024-02-16T11:41:15;100675.56;;;-3.34;79.43
75424;BME280;64005;55.160;36.002;2024-02-16T11:43:44;100672.84;;;-3.34;78.60
75424;BME280;64005;55.160;36.002;2024-02-16T11:46:12;100662.16;;;-3.36;78.55
75424;BME280;64005;55.160;36.002;2024-02-16T11:48:44;100654.84;;;-3.35;78.71
75424;BME280;64005;55.160;36.002;2024-02-16T11:51:21;100658.22;;;-3.33;78.61
75424;BME280;64005;55.160;36.002;2024-02-16T11:53:58;100658.22;;;-3.33;78.21
75424;BME280;64005;55.160;36.002;2024-02-16T11:56:26;100648.38;;;-3.34;78.39
75424;BME280;64005;55.160;36.002;2024-02-16T11:59:25;100651.28;;;-3.42;77.92
75424;BME280;64005;55.160;36.002;2024-02-16T12:01:54;100652.06;;;-3.55;77.77
75424;BME280;64005;55.160;36.002;2024-02-16T12:04:22;100652.84;;;-3.74;77.30
75424;BME280;64005;55.160;36.002;2024-02-16T12:06:57;100649.63;;;-3.84;77.76
75424;BME280;64005;55.160;36.002;2024-02-16T12:09:37;100652.09;;;-3.96;77.57
75424;BME280;64005;55.160;36.002;2024-02-16T12:12:05;100662.53;;;-4.06;77.60
75424;BME280;64005;55.160;36.002;2024-02-16T12:14:35;100653.69;;;-4.15;77.69
75424;BME280;64005;55.160;36.002;2024-02-16T12:17:03;100663.88;;;-4.23;77.47
75424;BME280;64005;55.160;36.002;2024-02-16T12:19:33;100656.72;;;-4.31;77.93
75424;BME280;64005;55.160;36.002;2024-02-16T12:22:02;100665.47;;;-4.35;77.62
75424;BME280;64005;55.160;36.002;2024-02-16T12:24:29;100654.97;;;-4.38;77.80
75424;BME280;64005;55.160;36.002;2024-02-16T12:26:56;100650.81;;;-4.41;77.75
75424;BME280;64005;55.160;36.002;2024-02-16T12:29:24;100656.63;;;-4.44;77.88
75424;BME280;64005;55.160;36.002;2024-02-16T12:31:51;100650.94;;;-4.49;77.96
75424;BME280;64005;55.160;36.002;2024-02-16T12:34:18;100645.53;;;-4.49;77.62
75424;BME280;64005;55.160;36.002;2024-02-16T12:36:45;100654.88;;;-4.52;77.77
75424;BME280;64005;55.160;36.002;2024-02-16T12:39:14;100658.03;;;-4.55;77.80
75424;BME280;64005;55.160;36.002;2024-02-16T12:41:42;100651.94;;;-4.57;77.72
75424;BME280;64005;55.160;36.002;2024-02-16T12:44:09;100656.28;;;-4.62;77.91
75424;BME280;64005;55.160;36.002;2024-02-16T12:46:36;100655.84;;;-4.66;77.49
75424;BME280;64005;55.160;36.002;2024-02-16T12:49:17;100652.06;;;-4.65;77.65
75424;BME280;64005;55.160;36.002;2024-02-16T12:51:47;100649.34;;;-4.65;77.65